createdAt,value
2023-05-17T00:01:56.738Z,44.17
2023-05-17T00:04:23.933Z,44.31
2023-05-17T00:06:51.504Z,44.26
2023-05-17T00:09:18.691Z,44.38
2023-05-17T00:11:46.016Z,44.38
2023-05-17T00:14:13.867Z,44.30
2023-05-17T00:16:59.963Z,44.41
2023-05-17T00:19:27.064Z,44.59
2023-05-17T00:21:54.204Z,44.38
2023-05-17T00:24:21.244Z,44.64
2023-05-17T00:26:48.373Z,44.77
2023-05-17T00:29:15.691Z,44.71
2023-05-17T00:31:42.976Z,44.76
2023-05-17T00:34:10.293Z,45.05
2023-05-17T00:36:37.774Z,44.75
2023-05-17T00:39:04.811Z,45.07
2023-05-17T00:41:31.940Z,45.05
2023-05-17T00:43:59.024Z,44.98
2023-05-17T00:46:26.366Z,44.81
2023-05-17T00:48:54.434Z,44.76
2023-05-17T00:51:22.807Z,45.13
2023-05-17T00:53:50.741Z,45.05
2023-05-17T00:56:18.378Z,44.99
2023-05-17T00:58:46.830Z,45.01
2023-05-17T01:01:14.017Z,45.16
2023-05-17T01:03:46.549Z,45.42
2023-05-17T01:06:14.514Z,45.13
2023-05-17T01:08:42.460Z,45.18
2023-05-17T01:11:15.038Z,45.16
2023-05-17T01:14:01.374Z,45.55
2023-05-17T01:16:37.439Z,45.21
2023-05-17T01:19:23.313Z,45.89
2023-05-17T01:22:15.993Z,46.10
2023-05-17T01:25:01.366Z,45.96
2023-05-17T01:27:30.089Z,45.46
2023-05-17T01:29:58.178Z,45.44
2023-05-17T01:32:26.202Z,45.54
2023-05-17T01:34:53.523Z,45.64
2023-05-17T01:37:20.602Z,45.74
2023-05-17T01:39:48.003Z,45.81
2023-05-17T01:42:22.426Z,46.55
2023-05-17T01:45:11.618Z,46.71
2023-05-17T01:48:11.933Z,46.58
2023-05-17T01:50:41.125Z,45.76
2023-05-17T01:53:11.845Z,46.12
2023-05-17T01:56:20.662Z,46.44
2023-05-17T01:58:49.077Z,45.78
2023-05-17T02:01:18.442Z,45.93
2023-05-17T02:03:49.976Z,46.51
2023-05-17T02:06:17.863Z,45.88
2023-05-17T02:08:44.962Z,46.16
2023-05-17T02:11:12.947Z,46.03
2023-05-17T02:13:40.629Z,46.29
2023-05-17T02:16:09.137Z,46.40
2023-05-17T02:18:38.012Z,46.58
2023-05-17T02:21:05.468Z,46.54
2023-05-17T02:23:32.621Z,46.20
2023-05-17T02:25:59.671Z,46.45
2023-05-17T02:28:28.027Z,46.47
2023-05-17T02:30:56.651Z,46.44
2023-05-17T02:33:23.926Z,46.39
2023-05-17T02:35:51.267Z,46.42
2023-05-17T02:38:20.345Z,46.52
2023-05-17T02:40:47.559Z,46.44
2023-05-17T02:43:14.659Z,46.29
2023-05-17T02:45:44.043Z,46.45
2023-05-17T02:48:14.113Z,46.24
2023-05-17T02:50:41.310Z,46.12
2023-05-17T02:53:08.428Z,45.96
2023-05-17T02:55:35.834Z,45.67
2023-05-17T02:58:03.986Z,45.65
2023-05-17T03:00:32.149Z,46.02
2023-05-17T03:02:59.364Z,45.67
2023-05-17T03:05:26.643Z,45.33
2023-05-17T03:07:54.034Z,45.59
2023-05-17T03:10:21.116Z,45.70
2023-05-17T03:12:48.925Z,45.55
2023-05-17T03:15:18.973Z,45.54
2023-05-17T03:17:46.794Z,45.44
2023-05-17T03:20:15.574Z,45.44
2023-05-17T03:22:43.496Z,45.38
2023-05-17T03:25:10.601Z,45.15
2023-05-17T03:27:38.058Z,45.18
2023-05-17T03:30:06.508Z,45.02
2023-05-17T03:32:35.687Z,44.89
2023-05-17T03:35:02.925Z,44.74
2023-05-17T03:37:31.367Z,44.41
2023-05-17T03:39:58.678Z,44.69
2023-05-17T03:42:25.782Z,44.54
2023-05-17T03:44:52.923Z,44.08
2023-05-17T03:47:24.029Z,44.36
2023-05-17T03:49:51.562Z,44.30
2023-05-17T03:52:18.850Z,44.12
2023-05-17T03:54:48.167Z,43.77
2023-05-17T03:57:16.501Z,43.64
2023-05-17T03:59:43.628Z,43.94
2023-05-17T04:02:11.041Z,43.76
2023-05-17T04:04:38.558Z,43.50
2023-05-17T04:07:05.664Z,43.16
2023-05-17T04:09:35.166Z,43.32
2023-05-17T04:12:02.478Z,43.08
2023-05-17T04:14:30.164Z,43.23
2023-05-17T04:16:58.570Z,43.07
2023-05-17T04:19:26.051Z,42.62
2023-05-17T04:21:53.276Z,42.52
2023-05-17T04:24:23.223Z,42.45
2023-05-17T04:26:50.614Z,42.31
2023-05-17T04:29:19.618Z,42.06
2023-05-17T04:31:49.129Z,42.14
2023-05-17T04:34:18.080Z,42.13
2023-05-17T04:36:45.694Z,41.94
2023-05-17T04:39:12.857Z,41.97
2023-05-17T04:41:40.631Z,41.86
2023-05-17T04:44:11.400Z,41.54
2023-05-17T04:46:38.658Z,41.70
2023-05-17T04:49:07.627Z,41.69
2023-05-17T04:51:35.008Z,41.44
2023-05-17T04:54:06.954Z,41.36
2023-05-17T04:56:36.660Z,41.12
2023-05-17T04:59:07.379Z,40.87
2023-05-17T05:01:35.518Z,41.02
2023-05-17T05:04:07.365Z,40.79
2023-05-17T05:06:40.948Z,40.67
2023-05-17T05:09:08.868Z,40.45
2023-05-17T05:11:37.812Z,40.37
2023-05-17T05:14:06.172Z,40.07
2023-05-17T05:16:33.847Z,40.03
2023-05-17T05:19:01.452Z,39.94
2023-05-17T05:21:29.558Z,39.86
2023-05-17T05:23:57.144Z,39.78
2023-05-17T05:26:24.280Z,39.67
2023-05-17T05:28:52.140Z,39.46
2023-05-17T05:31:19.307Z,39.40
2023-05-17T05:33:52.195Z,39.30
2023-05-17T05:36:19.549Z,39.14
2023-05-17T05:38:48.711Z,38.89
2023-05-17T05:41:16.752Z,38.73
2023-05-17T05:43:44.086Z,38.59
2023-05-17T05:46:11.567Z,38.56
2023-05-17T05:48:41.979Z,38.45
2023-05-17T05:51:09.833Z,38.31
2023-05-17T05:53:40.774Z,38.16
2023-05-17T05:56:08.154Z,38.08
2023-05-17T05:58:35.240Z,38.11
2023-05-17T06:01:06.158Z,37.89
2023-05-17T06:03:33.696Z,37.85
2023-05-17T06:06:00.965Z,37.93
2023-05-17T06:08:28.293Z,37.64
2023-05-17T06:10:55.577Z,37.58
2023-05-17T06:13:22.937Z,37.26
2023-05-17T06:15:50.348Z,37.20
2023-05-17T06:18:17.699Z,37.14
2023-05-17T06:20:44.863Z,36.99
2023-05-17T06:23:11.938Z,36.95
2023-05-17T06:25:40.633Z,36.71
2023-05-17T06:28:10.343Z,36.84
2023-05-17T06:30:37.722Z,36.75
2023-05-17T06:33:05.106Z,36.46
2023-05-17T06:35:43.728Z,36.57
2023-05-17T06:38:19.289Z,36.51
2023-05-17T06:40:46.489Z,36.39
2023-05-17T06:43:13.591Z,36.39
2023-05-17T06:45:40.849Z,36.18
2023-05-17T06:48:08.104Z,36.13
2023-05-17T06:50:37.589Z,36.20
2023-05-17T06:53:05.579Z,36.10
2023-05-17T06:55:32.891Z,36.23
2023-05-17T06:58:00.659Z,36.09
2023-05-17T07:00:28.869Z,35.92
2023-05-17T07:02:56.702Z,35.76
2023-05-17T07:05:24.735Z,35.73
2023-05-17T07:07:52.369Z,35.77
2023-05-17T07:10:19.541Z,35.57
2023-05-17T07:12:47.281Z,35.36
2023-05-17T07:15:14.444Z,35.06
2023-05-17T07:17:41.609Z,34.99
2023-05-17T07:20:09.483Z,34.91
2023-05-17T07:22:37.591Z,34.94
2023-05-17T07:25:06.152Z,34.81
2023-05-17T07:27:33.833Z,34.79
2023-05-17T07:30:01.944Z,34.57
2023-05-17T07:32:34.130Z,34.24
2023-05-17T07:35:03.247Z,34.55
2023-05-17T07:37:34.383Z,34.44
2023-05-17T07:40:02.240Z,34.06
2023-05-17T07:42:33.771Z,34.03
2023-05-17T07:45:01.191Z,33.86
2023-05-17T07:47:34.240Z,33.74
2023-05-17T07:50:01.638Z,33.70
2023-05-17T07:52:31.765Z,33.64
2023-05-17T07:54:58.891Z,33.53
2023-05-17T07:57:29.902Z,33.52
2023-05-17T07:59:57.254Z,33.46
2023-05-17T08:02:24.429Z,33.44
2023-05-17T08:04:53.130Z,33.22
2023-05-17T08:07:20.335Z,33.13
2023-05-17T08:09:48.499Z,33.19
2023-05-17T08:12:15.608Z,33.34
2023-05-17T08:14:42.904Z,33.06
2023-05-17T08:17:10.243Z,33.04
2023-05-17T08:19:37.584Z,32.77
2023-05-17T08:22:04.940Z,32.56
2023-05-17T08:24:32.079Z,32.53
2023-05-17T08:26:59.160Z,32.33
2023-05-17T08:29:26.446Z,32.34
2023-05-17T08:31:55.270Z,32.47
2023-05-17T08:34:22.603Z,32.28
2023-05-17T08:36:49.961Z,32.22
2023-05-17T08:39:20.212Z,32.07
2023-05-17T08:41:48.525Z,31.99
2023-05-17T08:44:19.562Z,31.78
2023-05-17T08:46:53.931Z,31.86
2023-05-17T08:49:23.614Z,31.80
2023-05-17T08:51:53.383Z,31.94
2023-05-17T08:54:23.364Z,31.73
2023-05-17T08:56:54.415Z,31.71
2023-05-17T08:59:22.810Z,31.75
2023-05-17T09:01:53.571Z,31.93
2023-05-17T09:04:21.893Z,31.71
2023-05-17T09:06:50.857Z,31.41
2023-05-17T09:09:19.043Z,31.46
2023-05-17T09:11:46.370Z,31.39
2023-05-17T09:14:17.404Z,31.35
2023-05-17T09:16:44.680Z,31.05
2023-05-17T09:19:17.709Z,30.83
2023-05-17T09:21:48.246Z,31.37
2023-05-17T09:24:19.050Z,31.43
2023-05-17T09:26:50.425Z,31.29
2023-05-17T09:29:17.667Z,31.22
2023-05-17T09:31:45.056Z,31.22
2023-05-17T09:34:12.418Z,31.17
2023-05-17T09:36:44.088Z,30.86
2023-05-17T09:39:13.872Z,31.04
2023-05-17T09:41:47.930Z,30.88
2023-05-17T09:44:16.953Z,30.81
2023-05-17T09:46:49.021Z,30.54
2023-05-17T09:49:18.082Z,30.84
2023-05-17T09:51:47.734Z,30.62
2023-05-17T09:54:15.565Z,30.60
2023-05-17T09:56:43.330Z,30.54
2023-05-17T09:59:15.446Z,30.41
2023-05-17T10:01:46.006Z,30.73
2023-05-17T10:04:14.393Z,30.39
2023-05-17T10:06:51.457Z,30.28
2023-05-17T10:09:22.545Z,30.00
2023-05-17T10:11:53.235Z,29.96
2023-05-17T10:14:35.124Z,29.86
2023-05-17T10:17:03.553Z,30.27
2023-05-17T10:19:31.499Z,29.98
2023-05-17T10:22:11.055Z,29.73
2023-05-17T10:24:48.159Z,29.80
2023-05-17T10:27:16.400Z,29.81
2023-05-17T10:29:45.888Z,29.66
2023-05-17T10:32:17.095Z,29.67
2023-05-17T10:34:45.822Z,29.56
2023-05-17T10:37:15.385Z,29.44
2023-05-17T10:39:46.902Z,29.43
2023-05-17T10:42:17.232Z,29.27
2023-05-17T10:44:44.481Z,29.24
2023-05-17T10:47:12.332Z,29.43
2023-05-17T10:49:45.237Z,29.34
2023-05-17T10:52:15.766Z,28.97
2023-05-17T10:54:44.673Z,29.21
2023-05-17T10:57:39.057Z,29.18
2023-05-17T11:00:20.997Z,29.11
2023-05-17T11:02:49.193Z,29.08
2023-05-17T11:05:27.604Z,28.98
2023-05-17T11:08:17.900Z,28.94
2023-05-17T11:11:14.236Z,29.30
2023-05-17T11:13:46.518Z,28.89
2023-05-17T11:16:18.071Z,28.62
2023-05-17T11:18:56.263Z,28.54
2023-05-17T11:21:28.337Z,28.61
2023-05-17T11:23:59.054Z,28.58
2023-05-17T11:26:29.490Z,28.64
2023-05-17T11:29:02.444Z,28.36
2023-05-17T11:31:34.869Z,28.47
2023-05-17T11:34:05.924Z,28.49
2023-05-17T11:36:49.708Z,28.34
2023-05-17T11:39:21.709Z,28.11
2023-05-17T11:41:51.052Z,27.56
2023-05-17T11:44:32.131Z,26.91
2023-05-17T11:47:04.179Z,26.51
2023-05-17T11:49:36.417Z,26.39
2023-05-17T11:52:07.715Z,26.85
2023-05-17T11:54:35.511Z,26.15
2023-05-17T11:57:04.509Z,25.68
2023-05-17T11:59:41.641Z,24.33
2023-05-17T12:02:09.574Z,24.41
2023-05-17T12:04:38.296Z,23.91
2023-05-17T12:07:10.621Z,23.01
2023-05-17T12:09:39.474Z,23.03
2023-05-17T12:12:06.780Z,22.26
2023-05-17T12:14:34.169Z,21.54
2023-05-17T12:17:04.068Z,21.46
2023-05-17T12:19:32.723Z,20.69
2023-05-17T12:22:13.873Z,19.67
2023-05-17T12:24:42.837Z,19.86
2023-05-17T12:27:12.918Z,19.64
2023-05-17T12:29:40.271Z,19.11
2023-05-17T12:32:10.363Z,18.26
2023-05-17T12:34:38.598Z,18.24
2023-05-17T12:37:10.921Z,18.18
2023-05-17T12:39:40.000Z,17.42
2023-05-17T12:42:09.566Z,17.20
2023-05-17T12:44:36.896Z,17.12
2023-05-17T12:47:04.220Z,16.79
2023-05-17T12:49:31.342Z,16.35
2023-05-17T12:52:05.397Z,14.69
2023-05-17T12:54:33.315Z,15.60
2023-05-17T12:57:12.568Z,14.50
2023-05-17T12:59:50.796Z,14.81
2023-05-17T13:02:20.526Z,14.90
2023-05-17T13:04:48.043Z,14.85
2023-05-17T13:07:24.914Z,14.44
2023-05-17T13:09:52.677Z,14.50
2023-05-17T13:12:21.818Z,14.31
2023-05-17T13:14:54.917Z,13.87
2023-05-17T13:17:34.244Z,13.36
2023-05-17T13:20:02.418Z,13.79
2023-05-17T13:22:32.462Z,13.79
2023-05-17T13:24:59.458Z,13.86
2023-05-17T13:27:26.487Z,13.73
2023-05-17T13:29:53.720Z,13.45
2023-05-17T13:32:21.306Z,13.18
2023-05-17T13:34:48.597Z,13.22
2023-05-17T13:37:15.638Z,13.39
2023-05-17T13:39:42.825Z,13.35
2023-05-17T13:42:13.226Z,13.31
2023-05-17T13:44:40.880Z,13.48
2023-05-17T13:47:08.418Z,13.08
2023-05-17T13:49:36.298Z,13.32
2023-05-17T13:52:03.882Z,12.97
2023-05-17T13:54:31.263Z,12.98
2023-05-17T13:56:58.432Z,13.00
2023-05-17T13:59:26.324Z,12.78
2023-05-17T14:01:54.037Z,12.86
2023-05-17T14:04:21.524Z,12.73
2023-05-17T14:06:51.134Z,12.57
2023-05-17T14:09:20.495Z,12.50
2023-05-17T14:11:47.679Z,12.49
2023-05-17T14:14:14.967Z,12.56
2023-05-17T14:16:42.135Z,12.73
2023-05-17T14:19:09.272Z,12.67
2023-05-17T14:21:36.637Z,12.55
2023-05-17T14:24:03.906Z,12.38
2023-05-17T14:26:31.061Z,12.36
2023-05-17T14:28:58.099Z,12.46
2023-05-17T14:31:28.360Z,12.66
2023-05-17T14:33:55.966Z,12.36
2023-05-17T14:36:22.965Z,12.42
2023-05-17T14:38:50.073Z,12.73
2023-05-17T14:41:18.666Z,12.72
2023-05-17T14:43:46.322Z,12.63
2023-05-17T14:46:14.920Z,12.56
2023-05-17T14:48:42.079Z,12.65
2023-05-17T14:51:09.462Z,12.79
2023-05-17T14:53:36.770Z,12.51
2023-05-17T14:56:03.985Z,13.13
2023-05-17T14:58:31.132Z,12.81
2023-05-17T15:01:05.557Z,13.07
2023-05-17T15:03:35.543Z,12.85
2023-05-17T15:06:06.940Z,13.22
2023-05-17T15:08:36.061Z,13.06
2023-05-17T15:11:03.547Z,12.80
2023-05-17T15:13:30.674Z,12.96
2023-05-17T15:15:57.686Z,13.14
2023-05-17T15:18:24.957Z,13.33
2023-05-17T15:20:52.130Z,13.23
2023-05-17T15:23:19.124Z,13.40
2023-05-17T15:25:46.655Z,13.52
2023-05-17T15:28:14.278Z,13.56
2023-05-17T15:30:42.270Z,13.42
2023-05-17T15:33:10.052Z,13.43
2023-05-17T15:35:41.542Z,13.59
2023-05-17T15:38:08.744Z,14.08
2023-05-17T15:40:35.948Z,13.54
2023-05-17T15:43:03.063Z,13.59
2023-05-17T15:45:30.362Z,13.67
2023-05-17T15:47:57.930Z,14.19
2023-05-17T15:50:25.264Z,14.30
2023-05-17T15:52:52.618Z,14.38
2023-05-17T15:55:19.754Z,14.59
2023-05-17T15:57:47.735Z,14.56
2023-05-17T16:00:15.148Z,14.39
2023-05-17T16:02:42.246Z,15.03
2023-05-17T16:05:09.751Z,15.19
2023-05-17T16:07:37.099Z,15.42
2023-05-17T16:10:04.458Z,15.68
2023-05-17T16:12:31.717Z,15.84
2023-05-17T16:14:58.991Z,16.70
2023-05-17T16:17:27.398Z,17.08
2023-05-17T16:19:54.681Z,17.35
2023-05-17T16:22:22.191Z,17.64
2023-05-17T16:24:53.835Z,17.75
2023-05-17T16:27:21.980Z,17.82
2023-05-17T16:29:49.689Z,18.52
2023-05-17T16:32:17.138Z,18.41
2023-05-17T16:34:44.826Z,18.82
2023-05-17T16:37:12.083Z,19.24
2023-05-17T16:39:39.544Z,19.44
2023-05-17T16:42:06.824Z,19.91
2023-05-17T16:44:52.951Z,20.50
2023-05-17T16:47:23.928Z,21.00
2023-05-17T16:49:51.064Z,21.23
2023-05-17T16:52:19.167Z,21.84
2023-05-17T16:54:46.624Z,22.08
2023-05-17T16:57:15.065Z,22.40
2023-05-17T16:59:42.435Z,22.80
2023-05-17T17:02:09.812Z,23.30
2023-05-17T17:04:36.966Z,23.48
2023-05-17T17:07:04.476Z,23.95
2023-05-17T17:09:31.793Z,24.21
2023-05-17T17:11:59.402Z,24.49
2023-05-17T17:14:27.502Z,24.78
2023-05-17T17:16:54.744Z,25.05
2023-05-17T17:19:21.974Z,25.35
2023-05-17T17:21:49.336Z,25.59
2023-05-17T17:24:16.458Z,25.88
2023-05-17T17:26:44.059Z,26.07
2023-05-17T17:29:11.252Z,26.57
2023-05-17T17:31:38.535Z,26.79
2023-05-17T17:34:05.712Z,27.06
2023-05-17T17:36:32.841Z,27.19
2023-05-17T17:38:59.883Z,27.49
2023-05-17T17:41:27.114Z,27.67
2023-05-17T17:44:09.153Z,28.05
2023-05-17T17:46:36.644Z,28.24
2023-05-17T17:49:04.032Z,28.38
2023-05-17T17:51:31.529Z,28.65
2023-05-17T17:53:58.644Z,28.83
2023-05-17T17:56:26.333Z,29.25
2023-05-17T17:58:56.430Z,29.40
2023-05-17T18:01:23.729Z,29.49
2023-05-17T18:03:50.884Z,29.69
2023-05-17T18:06:19.553Z,29.90
2023-05-17T18:08:46.904Z,30.21
2023-05-17T18:11:14.211Z,30.39
2023-05-17T18:13:41.384Z,30.47
2023-05-17T18:16:08.754Z,30.84
2023-05-17T18:18:37.545Z,31.05
2023-05-17T18:21:04.736Z,31.21
2023-05-17T18:23:31.782Z,31.43
2023-05-17T18:25:59.153Z,31.60
2023-05-17T18:28:38.046Z,31.72
2023-05-17T18:31:09.321Z,31.75
2023-05-17T18:33:36.523Z,32.20
2023-05-17T18:36:03.879Z,32.43
2023-05-17T18:38:31.037Z,32.45
2023-05-17T18:40:58.092Z,32.76
2023-05-17T18:43:25.540Z,32.86
2023-05-17T18:45:52.569Z,32.98
2023-05-17T18:48:22.214Z,33.13
2023-05-17T18:50:49.596Z,33.30
2023-05-17T18:53:16.890Z,33.30
2023-05-17T18:55:44.044Z,33.77
2023-05-17T18:58:11.302Z,33.91
2023-05-17T19:00:38.436Z,33.99
2023-05-17T19:03:05.543Z,34.04
2023-05-17T19:05:32.827Z,34.31
2023-05-17T19:08:00.088Z,34.54
2023-05-17T19:10:27.644Z,34.68
2023-05-17T19:12:54.859Z,34.69
2023-05-17T19:15:22.052Z,34.75
2023-05-17T19:17:49.338Z,34.99
2023-05-17T19:20:16.786Z,35.18
2023-05-17T19:22:43.775Z,35.26
2023-05-17T19:25:10.913Z,35.29
2023-05-17T19:27:38.185Z,35.52
2023-05-17T19:30:05.557Z,35.79
2023-05-17T19:32:33.317Z,35.85
2023-05-17T19:35:01.648Z,35.69
2023-05-17T19:37:32.011Z,36.01
2023-05-17T19:39:59.276Z,36.29
2023-05-17T19:42:26.808Z,36.11
2023-05-17T19:44:54.195Z,36.29
2023-05-17T19:47:21.388Z,36.41
2023-05-17T19:49:48.871Z,36.52
2023-05-17T19:52:16.031Z,36.47
2023-05-17T19:54:43.158Z,36.88
2023-05-17T19:57:10.910Z,36.73
2023-05-17T19:59:39.476Z,36.95
2023-05-17T20:02:07.074Z,36.88
2023-05-17T20:04:34.384Z,37.01
2023-05-17T20:07:01.619Z,37.30
2023-05-17T20:09:30.443Z,37.35
2023-05-17T20:11:58.032Z,37.32
2023-05-17T20:14:26.628Z,37.39
2023-05-17T20:16:54.504Z,37.44
2023-05-17T20:19:21.865Z,37.54
2023-05-17T20:21:49.136Z,37.61
2023-05-17T20:24:16.434Z,37.77
2023-05-17T20:26:46.695Z,37.86
2023-05-17T20:29:13.754Z,37.99
2023-05-17T20:31:41.129Z,38.14
2023-05-17T20:34:08.268Z,38.34
2023-05-17T20:36:35.340Z,38.07
2023-05-17T20:39:02.346Z,38.01
2023-05-17T20:41:29.611Z,38.15
2023-05-17T20:43:56.775Z,38.50
2023-05-17T20:46:24.188Z,38.40
2023-05-17T20:48:53.827Z,38.65
2023-05-17T20:51:22.491Z,38.46
2023-05-17T20:53:49.661Z,38.66
2023-05-17T20:56:19.446Z,38.87
2023-05-17T20:58:47.958Z,38.54
2023-05-17T21:01:15.141Z,39.02
2023-05-17T21:03:43.544Z,39.14
2023-05-17T21:06:11.107Z,39.07
2023-05-17T21:08:38.807Z,39.31
2023-05-17T21:11:06.011Z,39.29
2023-05-17T21:13:33.279Z,39.72
2023-05-17T21:16:00.958Z,39.34
2023-05-17T21:18:28.152Z,39.89
2023-05-17T21:20:55.621Z,39.74
2023-05-17T21:23:22.719Z,40.18
2023-05-17T21:25:49.922Z,39.95
2023-05-17T21:28:17.358Z,40.01
2023-05-17T21:30:44.411Z,39.88
2023-05-17T21:33:11.985Z,39.85
2023-05-17T21:35:39.156Z,39.98
2023-05-17T21:38:06.408Z,40.38
2023-05-17T21:40:33.757Z,40.25
2023-05-17T21:43:01.417Z,40.25
2023-05-17T21:45:28.747Z,40.28
2023-05-17T21:47:55.979Z,40.04
2023-05-17T21:50:23.180Z,40.28
2023-05-17T21:52:50.583Z,40.23
2023-05-17T21:55:17.955Z,40.36
2023-05-17T21:57:45.031Z,40.53
2023-05-17T22:00:15.529Z,40.35
2023-05-17T22:02:46.750Z,41.28
2023-05-17T22:05:14.155Z,40.66
2023-05-17T22:07:41.262Z,40.79
2023-05-17T22:10:09.940Z,40.77
2023-05-17T22:12:38.492Z,41.00
2023-05-17T22:15:06.436Z,40.74
2023-05-17T22:17:47.883Z,40.97
2023-05-17T22:20:22.972Z,40.97
2023-05-17T22:22:50.163Z,41.29
2023-05-17T22:25:17.824Z,41.37
2023-05-17T22:27:45.815Z,41.58
2023-05-17T22:30:13.356Z,41.81
2023-05-17T22:32:40.864Z,41.77
2023-05-17T22:35:08.356Z,41.50
2023-05-17T22:37:36.617Z,41.84
2023-05-17T22:40:06.430Z,42.04
2023-05-17T22:42:33.329Z,42.03
2023-05-17T22:45:00.774Z,41.96
2023-05-17T22:47:27.918Z,42.16
2023-05-17T22:49:55.054Z,42.33
2023-05-17T22:52:22.671Z,42.33
2023-05-17T22:54:49.704Z,42.19
2023-05-17T22:57:17.193Z,41.91
2023-05-17T22:59:44.267Z,42.02
2023-05-17T23:02:14.416Z,42.13
2023-05-17T23:04:42.010Z,42.25
2023-05-17T23:07:10.202Z,42.31
2023-05-17T23:09:40.978Z,42.23
2023-05-17T23:12:14.131Z,42.30
2023-05-17T23:14:42.598Z,42.57
2023-05-17T23:17:10.050Z,42.47
2023-05-17T23:19:37.581Z,42.69
2023-05-17T23:22:06.464Z,42.78
2023-05-17T23:24:38.937Z,42.58
2023-05-17T23:27:10.354Z,42.76
2023-05-17T23:29:37.999Z,42.71
2023-05-17T23:32:05.357Z,42.60
2023-05-17T23:34:32.725Z,42.96
2023-05-17T23:36:59.906Z,42.78
2023-05-17T23:39:27.065Z,42.91
2023-05-17T23:41:54.254Z,43.07
2023-05-17T23:44:21.480Z,43.29
2023-05-17T23:46:48.510Z,43.06
2023-05-17T23:49:16.690Z,43.12
2023-05-17T23:51:44.047Z,43.30
2023-05-17T23:54:12.410Z,43.37
2023-05-17T23:56:39.729Z,43.30
2023-05-17T23:59:06.842Z,43.53
